Time;durP1;ratioP1;P1;durP2;ratioP2;P2;SDS_P1;SDS_P2;PMS_P1;PMS_P2;Temp;Humidity;BMP_temperature;BMP_pressure;BME280_temperature;BME280_humidity;BME280_pressure;Samples;Min_cycle;Max_cycle;Signal;HPM_P1;HPM_P2
2022/11/17 00:01:25;;;;;;;;;;;;;;;10.09;75.72;96575.22;7386713;19;19923;-76
2022/11/17 00:03:51;;;;;;;;;;;;;;;10.17;75.52;96574.25;7387466;19;19933;-76
2022/11/17 00:06:21;;;;;;;;;;;;;;;10.14;75.70;96574.59;7382155;19;19944;-76
2022/11/17 00:08:48;;;;;;;;;;;;;;;10.19;75.49;96567.75;7381231;19;19922;-76
2022/11/17 00:11:14;;;;;;;;;;;;;;;10.06;75.31;96560.56;7386547;19;19927;-77
2022/11/17 00:16:26;;;;;;;;;;;;;;;10.03;76.09;96552.22;7388194;19;19922;-76
2022/11/17 00:21:38;;;;;;;;;;;;;;;10.04;76.18;96538.00;7381866;19;20761;-76
2022/11/17 00:24:05;;;;;;;;;;;;;;;10.00;76.34;96536.75;7379970;19;19929;-76
2022/11/17 00:26:32;;;;;;;;;;;;;;;10.09;76.23;96531.09;7384739;19;20343;-76
2022/11/17 00:28:59;;;;;;;;;;;;;;;10.09;76.32;96522.38;7377884;19;19918;-76
2022/11/17 00:34:13;;;;;;;;;;;;;;;10.18;76.81;96504.50;7383681;19;19944;-76
2022/11/17 00:36:41;;;;;;;;;;;;;;;10.16;76.50;96509.16;7381837;19;19919;-76
2022/11/17 00:39:08;;;;;;;;;;;;;;;10.18;76.36;96517.72;7383438;19;19915;-77
2022/11/17 00:41:35;;;;;;;;;;;;;;;10.23;76.20;96517.94;7383442;19;19926;-77
2022/11/17 00:44:01;;;;;;;;;;;;;;;10.45;75.37;96516.81;7383693;19;19922;-76
2022/11/17 00:46:28;;;;;;;;;;;;;;;10.45;74.90;96514.19;7383691;19;19948;-76
2022/11/17 00:48:54;;;;;;;;;;;;;;;10.40;74.81;96513.97;7382681;19;19948;-77
2022/11/17 00:51:21;;;;;;;;;;;;;;;10.38;74.39;96518.63;7384068;19;19919;-76
2022/11/17 00:53:48;;;;;;;;;;;;;;;10.38;74.16;96518.63;7388909;19;19923;-77
2022/11/17 00:56:14;;;;;;;;;;;;;;;10.37;74.24;96516.97;7388655;19;19935;-76
2022/11/17 00:58:41;;;;;;;;;;;;;;;10.33;74.61;96502.56;7389340;19;19923;-77
2022/11/17 01:01:08;;;;;;;;;;;;;;;10.27;74.77;96509.47;7392518;19;20407;-76
2022/11/17 01:03:35;;;;;;;;;;;;;;;10.26;74.99;96504.31;7388427;19;20036;-76
2022/11/17 01:06:06;;;;;;;;;;;;;;;10.36;74.86;96506.63;7392512;19;20239;-77
2022/11/17 01:08:33;;;;;;;;;;;;;;;10.40;74.56;96502.56;7388562;19;19977;-77
2022/11/17 01:11:10;;;;;;;;;;;;;;;10.30;74.94;96489.75;7386646;19;19911;-77
2022/11/17 01:13:37;;;;;;;;;;;;;;;10.13;75.80;96489.25;7386835;19;19954;-77
2022/11/17 01:16:05;;;;;;;;;;;;;;;10.12;75.78;96482.34;7388392;19;19927;-77
2022/11/17 01:18:32;;;;;;;;;;;;;;;10.13;75.96;96472.59;7389392;19;19911;-76
2022/11/17 01:21:02;;;;;;;;;;;;;;;10.10;75.90;96468.50;7387136;19;20006;-77
2022/11/17 01:23:29;;;;;;;;;;;;;;;10.15;76.23;96465.28;7389814;19;20051;-77
2022/11/17 01:26:06;;;;;;;;;;;;;;;10.29;75.90;96461.66;7392093;19;20030;-77
2022/11/17 01:28:33;;;;;;;;;;;;;;;10.24;76.24;96456.97;7386600;19;19927;-76
2022/11/17 01:31:01;;;;;;;;;;;;;;;10.24;76.34;96446.41;7384214;19;19918;-77
2022/11/17 01:33:28;;;;;;;;;;;;;;;10.22;76.64;96450.25;7387243;19;19915;-76
2022/11/17 01:35:54;;;;;;;;;;;;;;;10.15;76.64;96444.13;7387770;19;20714;-76
2022/11/17 01:38:21;;;;;;;;;;;;;;;10.23;76.47;96433.38;7390474;19;19943;-76
2022/11/17 01:40:48;;;;;;;;;;;;;;;10.34;76.50;96427.50;7391303;19;19948;-76
2022/11/17 01:43:54;;;;;;;;;;;;;;;10.35;76.50;96420.41;7394158;19;20711;-76
2022/11/17 01:46:38;;;;;;;;;;;;;;;10.36;76.41;96424.69;7391278;19;19914;-76
2022/11/17 01:49:06;;;;;;;;;;;;;;;10.38;76.25;96422.66;7390731;19;19974;-76
2022/11/17 01:51:44;;;;;;;;;;;;;;;10.39;76.31;96419.78;7392689;19;19919;-76
2022/11/17 01:54:16;;;;;;;;;;;;;;;10.36;76.04;96407.00;7393475;19;20409;-75
2022/11/17 01:57:15;;;;;;;;;;;;;;;10.44;75.78;96406.78;7392254;19;19961;-76
2022/11/17 01:59:44;;;;;;;;;;;;;;;10.61;75.06;96403.72;7394318;19;19932;-76
2022/11/17 02:02:11;;;;;;;;;;;;;;;10.55;75.44;96400.06;7393666;19;20006;-76
2022/11/17 02:04:46;;;;;;;;;;;;;;;10.47;75.33;96379.94;7385130;19;20623;-77
2022/11/17 02:07:16;;;;;;;;;;;;;;;10.49;75.91;96387.69;7389555;19;20260;-76
2022/11/17 02:09:43;;;;;;;;;;;;;;;10.52;75.57;96384.63;7389314;19;20476;-76
2022/11/17 02:15:37;;;;;;;;;;;;;;;10.57;75.67;96368.16;7395953;19;19914;-76
2022/11/17 02:18:17;;;;;;;;;;;;;;;10.62;75.60;96365.72;7393493;19;19915;-76
2022/11/17 02:21:07;;;;;;;;;;;;;;;10.55;76.07;96355.94;7384746;19;19933;-76
2022/11/17 02:23:55;;;;;;;;;;;;;;;10.58;75.69;96356.53;7387698;19;19913;-76
2022/11/17 02:26:30;;;;;;;;;;;;;;;10.65;75.31;96344.94;7388556;19;20014;-76
2022/11/17 02:28:59;;;;;;;;;;;;;;;10.64;75.32;96337.25;7385593;19;19919;-76
2022/11/17 02:31:25;;;;;;;;;;;;;;;10.60;75.26;96330.72;7384813;19;20347;-76
2022/11/17 02:34:02;;;;;;;;;;;;;;;10.57;75.14;96331.13;7387899;19;19923;-75
2022/11/17 02:36:43;;;;;;;;;;;;;;;10.44;75.38;96330.13;7381106;19;20302;-76
2022/11/17 02:39:10;;;;;;;;;;;;;;;10.45;75.03;96315.91;7385683;19;19914;-76
2022/11/17 02:41:40;;;;;;;;;;;;;;;10.34;75.26;96311.22;7389366;19;19982;-76
2022/11/17 02:44:09;;;;;;;;;;;;;;;10.37;75.11;96305.53;7386398;19;19922;-76
2022/11/17 02:46:43;;;;;;;;;;;;;;;10.32;75.42;96297.38;7385294;19;20691;-76
2022/11/17 02:49:20;;;;;;;;;;;;;;;10.27;75.22;96289.25;7387065;19;19941;-76
2022/11/17 02:51:50;;;;;;;;;;;;;;;10.17;75.57;96271.16;7385232;19;19919;-75
2022/11/17 02:54:17;;;;;;;;;;;;;;;10.26;75.31;96242.69;7386896;19;20299;-75
2022/11/17 02:56:48;;;;;;;;;;;;;;;10.20;75.32;96246.16;7386727;19;21338;-76
2022/11/17 02:59:16;;;;;;;;;;;;;;;10.08;75.39;96267.94;7390891;19;19990;-75
2022/11/17 03:01:52;;;;;;;;;;;;;;;10.12;75.28;96263.03;7390691;19;19918;-76
2022/11/17 03:04:29;;;;;;;;;;;;;;;10.17;75.42;96263.25;7384583;19;19918;-76
2022/11/17 03:07:11;;;;;;;;;;;;;;;10.14;75.38;96253.09;7390460;19;19967;-75
2022/11/17 03:09:44;;;;;;;;;;;;;;;10.11;75.44;96270.16;7386129;19;19923;-76
2022/11/17 03:12:35;;;;;;;;;;;;;;;10.22;75.29;96268.72;7386553;19;19926;-76
2022/11/17 03:15:12;;;;;;;;;;;;;;;10.13;75.38;96282.34;7385793;19;20497;-75
2022/11/17 03:17:58;;;;;;;;;;;;;;;10.11;75.02;96288.66;7386575;19;19922;-75
2022/11/17 03:20:26;;;;;;;;;;;;;;;10.13;75.35;96296.34;7388427;19;20372;-75
2022/11/17 03:22:58;;;;;;;;;;;;;;;10.18;75.19;96306.31;7387588;19;19952;-76
2022/11/17 03:25:24;;;;;;;;;;;;;;;10.29;75.47;96298.63;7385310;19;19952;-75
2022/11/17 03:27:55;;;;;;;;;;;;;;;10.36;75.28;96308.38;7382963;19;19919;-75
2022/11/17 03:30:24;;;;;;;;;;;;;;;10.41;75.10;96304.09;7388618;19;19918;-77
2022/11/17 03:32:51;;;;;;;;;;;;;;;10.48;75.09;96294.34;7388039;19;19915;-77
2022/11/17 03:35:19;;;;;;;;;;;;;;;10.52;75.45;96300.81;7387192;19;19922;-76
2022/11/17 03:37:48;;;;;;;;;;;;;;;10.61;75.27;96306.72;7386802;19;19944;-77
2022/11/17 03:40:16;;;;;;;;;;;;;;;10.63;75.14;96298.56;7387354;19;20380;-76
2022/11/17 03:42:44;;;;;;;;;;;;;;;10.61;75.40;96290.03;7384660;19;19915;-77
2022/11/17 03:45:18;;;;;;;;;;;;;;;10.70;75.36;96286.16;7382895;19;20312;-76
2022/11/17 03:47:44;;;;;;;;;;;;;;;10.71;75.40;96280.66;7384039;19;19928;-76
2022/11/17 03:50:11;;;;;;;;;;;;;;;10.65;75.68;96278.03;7386367;19;20836;-75
2022/11/17 03:52:38;;;;;;;;;;;;;;;10.51;76.21;96274.63;7384655;19;19940;-76
2022/11/17 03:55:04;;;;;;;;;;;;;;;10.47;76.32;96284.78;7387433;19;19919;-76
2022/11/17 03:57:37;;;;;;;;;;;;;;;10.40;76.41;96278.69;7385609;19;19944;-76
2022/11/17 04:00:10;;;;;;;;;;;;;;;10.28;76.81;96286.44;7380820;19;19915;-75
2022/11/17 04:02:43;;;;;;;;;;;;;;;10.32;76.42;96282.38;7382706;19;20269;-76
2022/11/17 04:05:10;;;;;;;;;;;;;;;10.35;76.19;96289.06;7382477;19;19970;-76
2022/11/17 04:07:41;;;;;;;;;;;;;;;10.35;76.39;96294.38;7388207;19;19923;-75
2022/11/17 04:10:08;;;;;;;;;;;;;;;10.43;76.80;96282.75;7386762;19;19926;-76
2022/11/17 04:18:05;;;;;;;;;;;;;;;10.22;78.47;96278.50;7379691;19;19915;-75
2022/11/17 04:20:35;;;;;;;;;;;;;;;10.31;78.51;96278.09;7383566;19;20554;-75
2022/11/17 04:23:08;;;;;;;;;;;;;;;10.36;78.32;96281.94;7385423;19;19935;-76
2022/11/17 04:28:36;;;;;;;;;;;;;;;10.37;78.25;96273.00;7386381;19;19915;-75
2022/11/17 04:31:07;;;;;;;;;;;;;;;10.33;78.27;96273.41;7392036;19;19974;-75
2022/11/17 04:33:33;;;;;;;;;;;;;;;10.38;78.23;96272.00;7389020;19;20376;-75
2022/11/17 04:36:00;;;;;;;;;;;;;;;10.44;77.90;96263.22;7387693;19;19918;-76
2022/11/17 04:38:27;;;;;;;;;;;;;;;10.42;77.64;96266.06;7391721;19;19954;-75
2022/11/17 04:43:44;;;;;;;;;;;;;;;10.38;77.82;96264.06;7392803;19;19919;-75
2022/11/17 04:46:10;;;;;;;;;;;;;;;10.33;77.90;96264.69;7391917;19;20006;-75
2022/11/17 04:48:37;;;;;;;;;;;;;;;10.36;78.01;96256.31;7389709;19;20308;-75
2022/11/17 04:51:03;;;;;;;;;;;;;;;10.32;77.93;96255.94;7386246;19;20232;-75
2022/11/17 04:53:30;;;;;;;;;;;;;;;10.44;77.95;96252.66;7391272;19;20385;-75
2022/11/17 04:55:59;;;;;;;;;;;;;;;10.47;78.03;96250.41;7392378;19;19922;-75
2022/11/17 04:58:26;;;;;;;;;;;;;;;10.47;78.10;96254.88;7389505;19;19927;-76
2022/11/17 05:00:52;;;;;;;;;;;;;;;10.45;77.74;96252.47;7390534;19;19947;-75
2022/11/17 05:03:19;;;;;;;;;;;;;;;10.40;78.03;96262.84;7392594;19;19915;-75
2022/11/17 05:05:46;;;;;;;;;;;;;;;10.40;77.88;96260.19;7389309;19;19943;-75
2022/11/17 05:08:13;;;;;;;;;;;;;;;10.45;77.72;96262.19;7386877;19;20409;-75
2022/11/17 05:13:25;;;;;;;;;;;;;;;10.60;77.34;96261.97;7389277;19;20409;-76
2022/11/17 05:18:41;;;;;;;;;;;;;;;10.55;77.53;96266.03;7388644;19;19922;-75
2022/11/17 05:21:08;;;;;;;;;;;;;;;10.60;77.34;96272.56;7388036;19;19923;-76
2022/11/17 05:23:53;;;;;;;;;;;;;;;10.62;76.96;96265.22;7387782;19;22006;-76
2022/11/17 05:26:24;;;;;;;;;;;;;;;10.60;77.20;96262.78;7390647;19;19918;-75
2022/11/17 05:28:50;;;;;;;;;;;;;;;10.65;77.00;96265.63;7388112;19;19914;-75
2022/11/17 05:31:17;;;;;;;;;;;;;;;10.76;76.91;96266.81;7390755;19;19954;-76
2022/11/17 05:33:43;;;;;;;;;;;;;;;10.84;76.83;96271.84;7384765;19;19911;-76
2022/11/17 05:36:10;;;;;;;;;;;;;;;10.85;76.63;96265.56;7386003;19;19933;-76
2022/11/17 05:38:37;;;;;;;;;;;;;;;10.92;76.37;96268.16;7387245;19;19919;-76
2022/11/17 05:41:03;;;;;;;;;;;;;;;10.85;76.77;96270.03;7385374;19;20240;-76
2022/11/17 05:43:30;;;;;;;;;;;;;;;10.71;76.77;96274.53;7385962;19;20347;-75
2022/11/17 05:45:56;;;;;;;;;;;;;;;10.68;76.70;96280.25;7382637;19;19932;-76
2022/11/17 05:48:23;;;;;;;;;;;;;;;10.74;76.71;96282.91;7386233;19;19926;-75
2022/11/17 05:50:55;;;;;;;;;;;;;;;10.80;76.70;96283.09;7388016;19;19927;-75
2022/11/17 05:53:22;;;;;;;;;;;;;;;10.80;76.46;96277.78;7388579;19;19944;-75
2022/11/17 05:55:49;;;;;;;;;;;;;;;10.94;76.34;96279.38;7381069;19;19940;-75
2022/11/17 05:58:23;;;;;;;;;;;;;;;10.97;76.46;96290.31;7382519;19;19944;-76
2022/11/17 06:00:49;;;;;;;;;;;;;;;10.98;76.52;96280.59;7388698;19;19915;-75
2022/11/17 06:03:19;;;;;;;;;;;;;;;10.98;76.45;96260.22;7386842;19;19939;-75
2022/11/17 06:05:46;;;;;;;;;;;;;;;11.01;75.98;96264.28;7388916;19;19919;-76
2022/11/17 06:08:14;;;;;;;;;;;;;;;11.02;76.32;96271.19;7388325;19;19919;-75
2022/11/17 06:10:41;;;;;;;;;;;;;;;11.07;76.29;96268.72;7388327;19;19918;-76
2022/11/17 06:13:07;;;;;;;;;;;;;;;11.18;75.78;96270.69;7383247;19;19926;-76
2022/11/17 06:15:34;;;;;;;;;;;;;;;11.14;76.21;96271.34;7382868;19;19926;-76
2022/11/17 06:18:11;;;;;;;;;;;;;;;11.25;75.83;96275.16;7388265;19;19918;-76
2022/11/17 06:20:38;;;;;;;;;;;;;;;11.32;75.64;96275.94;7387961;19;20765;-76
2022/11/17 06:23:05;;;;;;;;;;;;;;;11.39;75.51;96272.22;7383540;19;20669;-76
2022/11/17 06:25:32;;;;;;;;;;;;;;;11.40;75.48;96280.97;7384088;19;19926;-76
2022/11/17 06:27:58;;;;;;;;;;;;;;;11.45;75.05;96275.84;7382237;19;19954;-76
2022/11/17 06:30:26;;;;;;;;;;;;;;;11.38;75.39;96270.63;7376802;19;20266;-75
2022/11/17 06:32:55;;;;;;;;;;;;;;;11.39;75.32;96269.56;7375322;19;19911;-76
2022/11/17 06:35:21;;;;;;;;;;;;;;;11.34;75.29;96272.03;7381840;19;19918;-76
2022/11/17 06:37:48;;;;;;;;;;;;;;;11.31;75.33;96275.13;7383642;19;20029;-75
2022/11/17 06:40:14;;;;;;;;;;;;;;;11.32;74.86;96276.75;7386082;19;20648;-75
2022/11/17 06:45:26;;;;;;;;;;;;;;;11.36;74.97;96280.59;7389370;19;19922;-76
2022/11/17 06:47:53;;;;;;;;;;;;;;;11.33;75.07;96283.66;7382785;19;19925;-76
2022/11/17 06:50:19;;;;;;;;;;;;;;;11.28;75.53;96288.78;7389641;19;19940;-76
2022/11/17 06:52:46;;;;;;;;;;;;;;;11.23;75.67;96296.53;7386308;19;19918;-75
2022/11/17 06:55:12;;;;;;;;;;;;;;;11.30;75.26;96299.97;7386962;19;20397;-76
2022/11/17 06:57:39;;;;;;;;;;;;;;;11.35;75.17;96296.72;7390578;19;19944;-76
2022/11/17 07:00:06;;;;;;;;;;;;;;;11.48;74.74;96290.50;7390046;19;19922;-76
2022/11/17 07:02:33;;;;;;;;;;;;;;;11.38;74.80;96286.50;7385667;19;19964;-75
2022/11/17 07:04:59;;;;;;;;;;;;;;;11.54;75.12;96287.84;7383536;19;19914;-76
2022/11/17 07:07:26;;;;;;;;;;;;;;;11.55;74.73;96286.00;7387832;19;19935;-76
2022/11/17 07:09:53;;;;;;;;;;;;;;;11.43;74.95;96289.31;7388928;19;19929;-75
2022/11/17 07:12:20;;;;;;;;;;;;;;;11.52;74.58;96278.47;7388371;19;19975;-76
2022/11/17 07:14:46;;;;;;;;;;;;;;;11.45;74.61;96280.34;7387241;19;20282;-75
2022/11/17 07:17:13;;;;;;;;;;;;;;;11.70;74.29;96273.28;7387692;19;19922;-75
2022/11/17 07:19:39;;;;;;;;;;;;;;;11.79;73.90;96271.97;7385793;19;19930;-75
2022/11/17 07:22:06;;;;;;;;;;;;;;;11.76;73.40;96283.00;7384650;19;19918;-75
2022/11/17 07:24:32;;;;;;;;;;;;;;;11.88;73.29;96295.59;7387800;19;19922;-75
2022/11/17 07:26:59;;;;;;;;;;;;;;;11.85;73.23;96284.38;7386826;19;19923;-75
2022/11/17 07:29:27;;;;;;;;;;;;;;;11.86;72.86;96283.38;7385888;19;19931;-75
2022/11/17 07:31:54;;;;;;;;;;;;;;;11.89;73.28;96289.28;7387117;19;20364;-76
2022/11/17 07:34:20;;;;;;;;;;;;;;;11.89;72.63;96270.72;7385919;19;19915;-76
2022/11/17 07:36:47;;;;;;;;;;;;;;;11.90;72.69;96267.03;7381636;19;19919;-76
2022/11/17 07:39:14;;;;;;;;;;;;;;;11.78;72.73;96275.66;7383043;19;19923;-75
2022/11/17 07:41:46;;;;;;;;;;;;;;;11.86;72.73;96288.66;7384616;19;19939;-76
2022/11/17 07:44:13;;;;;;;;;;;;;;;11.93;72.32;96269.25;7385765;19;20135;-75
2022/11/17 07:46:39;;;;;;;;;;;;;;;12.04;72.75;96276.53;7387181;19;19923;-75
2022/11/17 07:49:06;;;;;;;;;;;;;;;12.17;72.53;96267.66;7383267;19;19919;-76
2022/11/17 07:51:33;;;;;;;;;;;;;;;12.04;72.21;96274.69;7386216;19;19915;-75
2022/11/17 07:53:59;;;;;;;;;;;;;;;12.25;71.50;96268.19;7381763;19;19921;-76
2022/11/17 07:56:26;;;;;;;;;;;;;;;12.06;72.38;96277.13;7385237;19;19953;-75
2022/11/17 07:58:53;;;;;;;;;;;;;;;12.09;72.35;96268.72;7386130;19;20270;-75
2022/11/17 08:01:19;;;;;;;;;;;;;;;12.05;71.38;96278.13;7386682;19;19922;-75
2022/11/17 08:03:46;;;;;;;;;;;;;;;12.17;71.41;96276.41;7380472;19;19952;-76
2022/11/17 08:06:13;;;;;;;;;;;;;;;12.13;71.86;96283.16;7387559;19;19935;-75
2022/11/17 08:08:39;;;;;;;;;;;;;;;12.18;71.43;96279.88;7384499;19;19940;-76
2022/11/17 08:11:07;;;;;;;;;;;;;;;12.21;71.28;96277.59;7379758;19;19919;-76
2022/11/17 08:13:34;;;;;;;;;;;;;;;12.36;71.43;96279.91;7383649;19;19951;-76
2022/11/17 08:16:00;;;;;;;;;;;;;;;12.15;71.49;96286.41;7385591;19;19940;-75
2022/11/17 08:18:27;;;;;;;;;;;;;;;12.35;70.77;96296.03;7384165;19;19919;-76
2022/11/17 08:21:20;;;;;;;;;;;;;;;12.43;71.07;96293.13;7384634;19;19923;-75
2022/11/17 08:23:54;;;;;;;;;;;;;;;12.31;70.71;96295.66;7386511;19;20447;-76
2022/11/17 08:26:20;;;;;;;;;;;;;;;12.50;70.85;96301.81;7385234;19;20258;-76
2022/11/17 08:28:47;;;;;;;;;;;;;;;12.46;71.48;96298.78;7380486;19;19922;-76
2022/11/17 08:31:20;;;;;;;;;;;;;;;12.44;71.05;96292.88;7386349;19;20255;-75
2022/11/17 08:33:47;;;;;;;;;;;;;;;12.40;70.99;96294.38;7384271;19;19940;-76
2022/11/17 08:36:13;;;;;;;;;;;;;;;12.39;70.90;96297.22;7385603;19;20318;-76
2022/11/17 08:38:40;;;;;;;;;;;;;;;12.47;70.79;96295.09;7387360;19;19927;-76
2022/11/17 08:41:06;;;;;;;;;;;;;;;12.44;70.63;96292.88;7385337;19;19919;-75
2022/11/17 08:43:33;;;;;;;;;;;;;;;12.46;71.01;96300.63;7382675;19;20435;-76
2022/11/17 08:46:01;;;;;;;;;;;;;;;12.51;70.62;96287.53;7383825;19;19923;-75
2022/11/17 08:48:28;;;;;;;;;;;;;;;12.35;70.66;96286.25;7383499;19;19922;-76
2022/11/17 08:50:54;;;;;;;;;;;;;;;12.34;71.04;96300.53;7384828;19;19952;-76
2022/11/17 08:53:22;;;;;;;;;;;;;;;12.27;71.52;96300.59;7384203;19;19918;-76
2022/11/17 08:55:49;;;;;;;;;;;;;;;12.28;71.64;96296.09;7382803;19;19915;-76
2022/11/17 08:58:16;;;;;;;;;;;;;;;12.31;71.83;96300.97;7386054;19;19918;-75
2022/11/17 09:00:45;;;;;;;;;;;;;;;12.26;71.57;96300.78;7384929;19;19914;-75
2022/11/17 09:03:12;;;;;;;;;;;;;;;12.09;72.27;96305.84;7387872;19;19914;-75
2022/11/17 09:05:39;;;;;;;;;;;;;;;12.07;71.52;96302.59;7387739;19;19926;-75
2022/11/17 09:08:06;;;;;;;;;;;;;;;12.12;72.35;96310.69;7380980;19;19944;-75
2022/11/17 09:10:52;;;;;;;;;;;;;;;12.16;72.13;96314.53;7384682;19;19923;-75
2022/11/17 09:13:19;;;;;;;;;;;;;;;12.26;71.87;96320.16;7382919;19;19964;-75
2022/11/17 09:15:46;;;;;;;;;;;;;;;12.19;72.77;96332.69;7389426;19;20271;-75
2022/11/17 09:18:13;;;;;;;;;;;;;;;12.22;72.62;96334.91;7384459;19;19914;-75
2022/11/17 09:20:40;;;;;;;;;;;;;;;12.32;71.93;96329.09;7388094;19;19922;-75
2022/11/17 09:23:11;;;;;;;;;;;;;;;12.34;71.60;96331.53;7392087;19;19947;-75
2022/11/17 09:25:37;;;;;;;;;;;;;;;12.54;70.78;96332.19;7393179;19;19932;-75
2022/11/17 09:28:04;;;;;;;;;;;;;;;12.47;70.69;96331.41;7390647;19;19919;-75
2022/11/17 09:30:30;;;;;;;;;;;;;;;12.67;70.57;96334.72;7391081;19;19919;-75
2022/11/17 09:32:57;;;;;;;;;;;;;;;12.68;70.42;96328.34;7385305;19;20283;-75
2022/11/17 09:35:23;;;;;;;;;;;;;;;12.67;70.47;96336.56;7384993;19;19919;-76
2022/11/17 09:37:50;;;;;;;;;;;;;;;12.73;69.92;96340.97;7391071;19;20239;-76
2022/11/17 09:40:17;;;;;;;;;;;;;;;12.76;70.39;96334.41;7392862;19;19940;-76
2022/11/17 09:42:44;;;;;;;;;;;;;;;12.77;70.88;96347.47;7394262;19;20244;-76
2022/11/17 09:45:24;;;;;;;;;;;;;;;12.64;69.40;96353.72;7391933;19;19947;-76
2022/11/17 09:47:54;;;;;;;;;;;;;;;12.87;70.19;96349.59;7388884;19;19918;-76
2022/11/17 09:50:40;;;;;;;;;;;;;;;12.65;70.13;96360.63;7388596;19;19915;-76
2022/11/17 09:53:13;;;;;;;;;;;;;;;12.72;69.34;96357.94;7385033;19;19922;-76
2022/11/17 09:55:40;;;;;;;;;;;;;;;12.96;69.95;96357.06;7388974;19;19955;-76
2022/11/17 09:58:25;;;;;;;;;;;;;;;12.79;69.10;96355.19;7389269;19;19936;-76
2022/11/17 10:00:52;;;;;;;;;;;;;;;12.94;69.48;96353.00;7392242;19;20298;-76
2022/11/17 10:03:20;;;;;;;;;;;;;;;12.97;70.55;96363.19;7389291;19;19943;-76
2022/11/17 10:05:46;;;;;;;;;;;;;;;13.02;69.48;96362.53;7390469;19;20258;-76
2022/11/17 10:08:19;;;;;;;;;;;;;;;12.83;68.83;96367.00;7384323;19;20375;-75
2022/11/17 10:10:47;;;;;;;;;;;;;;;12.91;69.90;96374.69;7383596;19;19956;-76
2022/11/17 10:13:22;;;;;;;;;;;;;;;13.01;68.96;96372.34;7385813;19;19964;-77
2022/11/17 10:15:51;;;;;;;;;;;;;;;13.18;68.51;96361.94;7380902;19;20244;-77
2022/11/17 10:18:17;;;;;;;;;;;;;;;13.34;69.71;96371.19;7382554;19;19911;-74
2022/11/17 10:20:44;;;;;;;;;;;;;;;13.29;70.01;96368.38;7385836;19;19915;-75
2022/11/17 10:23:15;;;;;;;;;;;;;;;13.34;68.73;96360.56;7383219;19;19951;-74
2022/11/17 10:25:49;;;;;;;;;;;;;;;13.46;68.33;96350.81;7384527;19;19926;-76
2022/11/17 10:28:27;;;;;;;;;;;;;;;13.57;66.76;96352.72;7392006;19;19926;-76
2022/11/17 10:31:04;;;;;;;;;;;;;;;13.67;64.24;96359.38;7386190;19;20190;-76
2022/11/17 10:33:41;;;;;;;;;;;;;;;13.85;64.67;96361.97;7379549;19;19919;-76
2022/11/17 10:36:18;;;;;;;;;;;;;;;13.65;64.94;96356.09;7388417;19;19915;-73
2022/11/17 10:38:45;;;;;;;;;;;;;;;13.60;66.07;96365.56;7374804;19;19930;-76
2022/11/17 10:41:16;;;;;;;;;;;;;;;13.73;65.42;96361.91;7381688;19;19914;-76
2022/11/17 10:44:03;;;;;;;;;;;;;;;13.56;65.37;96367.06;7385728;19;20355;-76
2022/11/17 10:46:30;;;;;;;;;;;;;;;13.55;64.08;96365.41;7388153;19;19982;-76
2022/11/17 10:49:21;;;;;;;;;;;;;;;13.55;64.81;96365.41;7383601;19;19929;-76
2022/11/17 10:51:48;;;;;;;;;;;;;;;13.54;64.88;96353.16;7387271;19;19923;-78
2022/11/17 10:54:14;;;;;;;;;;;;;;;13.46;64.90;96345.50;7381865;19;20249;-76
2022/11/17 10:56:42;;;;;;;;;;;;;;;13.41;65.12;96353.34;7383413;19;19944;-73
2022/11/17 10:59:15;;;;;;;;;;;;;;;13.45;65.00;96359.81;7377725;19;19927;-76
2022/11/17 11:01:44;;;;;;;;;;;;;;;13.49;63.57;96365.50;7387414;19;19952;-76
2022/11/17 11:04:30;;;;;;;;;;;;;;;13.54;64.67;96371.75;7383347;19;20320;-76
2022/11/17 11:07:13;;;;;;;;;;;;;;;13.36;62.92;96353.19;7385769;19;19927;-76
2022/11/17 11:09:42;;;;;;;;;;;;;;;13.33;64.96;96353.66;7387169;19;20274;-77
2022/11/17 11:12:09;;;;;;;;;;;;;;;13.33;64.37;96361.63;7384037;19;19926;-77
2022/11/17 11:14:37;;;;;;;;;;;;;;;13.26;61.77;96350.22;7378441;19;20320;-76
2022/11/17 11:17:10;;;;;;;;;;;;;;;13.30;64.95;96356.75;7384218;19;20295;-76
2022/11/17 11:19:39;;;;;;;;;;;;;;;13.47;65.38;96347.13;7385566;19;19944;-77
2022/11/17 11:22:14;;;;;;;;;;;;;;;13.68;62.82;96359.13;7391850;19;19943;-76
2022/11/17 11:24:53;;;;;;;;;;;;;;;13.72;64.77;96355.00;7389597;19;19918;-77
2022/11/17 11:27:34;;;;;;;;;;;;;;;13.81;62.42;96350.16;7391194;19;19915;-76
2022/11/17 11:30:05;;;;;;;;;;;;;;;13.84;62.70;96347.84;7389683;19;19919;-77
2022/11/17 11:32:38;;;;;;;;;;;;;;;13.86;63.17;96354.81;7387683;19;19915;-77
2022/11/17 11:35:25;;;;;;;;;;;;;;;13.96;62.78;96349.75;7390216;19;20031;-77
2022/11/17 11:38:00;;;;;;;;;;;;;;;13.84;63.28;96347.03;7387727;19;19939;-76
2022/11/17 11:40:31;;;;;;;;;;;;;;;13.64;63.42;96349.16;7387648;19;20347;-77
2022/11/17 11:42:58;;;;;;;;;;;;;;;13.48;64.12;96356.72;7386553;19;19919;-76
2022/11/17 11:45:40;;;;;;;;;;;;;;;13.38;63.88;96356.44;7385447;19;20320;-77
2022/11/17 11:48:11;;;;;;;;;;;;;;;13.32;63.58;96355.50;7383040;19;19957;-76
2022/11/17 11:50:42;;;;;;;;;;;;;;;13.27;63.95;96370.44;7384861;19;19926;-77
2022/11/17 11:53:21;;;;;;;;;;;;;;;13.28;63.51;96361.47;7386078;19;19918;-77
2022/11/17 11:55:48;;;;;;;;;;;;;;;13.29;63.92;96371.03;7391989;19;20379;-78
2022/11/17 11:58:22;;;;;;;;;;;;;;;13.15;64.73;96375.66;7392600;19;19936;-77
2022/11/17 12:00:49;;;;;;;;;;;;;;;13.32;65.40;96370.59;7398193;19;19918;-78
2022/11/17 12:03:19;;;;;;;;;;;;;;;13.50;64.44;96378.53;7392852;19;19926;-77
2022/11/17 12:05:58;;;;;;;;;;;;;;;13.75;62.66;96375.78;7392581;19;19937;-78
2022/11/17 12:08:28;;;;;;;;;;;;;;;13.61;63.61;96364.53;7394048;19;20243;-77
2022/11/17 12:10:56;;;;;;;;;;;;;;;13.55;65.01;96372.56;7395057;19;19922;-77
2022/11/17 12:13:23;;;;;;;;;;;;;;;13.63;62.25;96371.47;7390527;19;20297;-78
2022/11/17 12:15:49;;;;;;;;;;;;;;;13.72;64.40;96359.50;7395338;19;19923;-77
2022/11/17 12:18:16;;;;;;;;;;;;;;;13.75;63.59;96356.38;7391140;19;19915;-78
2022/11/17 12:20:48;;;;;;;;;;;;;;;13.92;63.47;96370.66;7390098;19;19919;-77
2022/11/17 12:23:24;;;;;;;;;;;;;;;13.90;63.73;96377.22;7395064;19;20224;-78
2022/11/17 12:25:52;;;;;;;;;;;;;;;13.82;62.52;96375.69;7385791;19;19922;-77
2022/11/17 12:28:31;;;;;;;;;;;;;;;13.81;62.75;96368.75;7379535;19;19918;-77
2022/11/17 12:30:58;;;;;;;;;;;;;;;13.67;63.47;96372.66;7385163;19;19933;-78
2022/11/17 12:34:06;;;;;;;;;;;;;;;13.96;62.97;96379.81;7379664;19;20504;-77
2022/11/17 12:36:33;;;;;;;;;;;;;;;14.13;61.84;96384.47;7376279;19;19923;-78
2022/11/17 12:39:04;;;;;;;;;;;;;;;13.95;62.47;96386.13;7376771;19;19953;-77
2022/11/17 12:41:45;;;;;;;;;;;;;;;14.05;62.76;96391.72;7382198;19;19911;-77
2022/11/17 12:44:30;;;;;;;;;;;;;;;14.25;62.42;96382.66;7383359;19;20373;-77
2022/11/17 12:47:17;;;;;;;;;;;;;;;14.39;62.55;96391.25;7386513;19;19915;-75
2022/11/17 12:50:02;;;;;;;;;;;;;;;14.30;62.34;96387.28;7386623;19;19929;-75
2022/11/17 12:52:31;;;;;;;;;;;;;;;14.34;62.22;96378.63;7399077;19;19910;-77
2022/11/17 12:55:01;;;;;;;;;;;;;;;14.86;61.83;96381.50;7394464;19;19923;-77
2022/11/17 12:57:29;;;;;;;;;;;;;;;14.70;60.13;96369.69;7393213;19;19918;-75
2022/11/17 12:59:59;;;;;;;;;;;;;;;14.64;59.49;96367.97;7397265;19;19948;-75
2022/11/17 13:02:31;;;;;;;;;;;;;;;14.50;60.67;96372.63;7402134;19;19926;-79
2022/11/17 13:05:04;;;;;;;;;;;;;;;14.68;60.50;96368.28;7403339;19;19952;-77
2022/11/17 13:07:31;;;;;;;;;;;;;;;14.78;61.24;96370.38;7396446;19;20105;-75
2022/11/17 13:10:00;;;;;;;;;;;;;;;14.75;60.45;96382.31;7396219;19;19918;-76
2022/11/17 13:12:29;;;;;;;;;;;;;;;14.77;59.63;96382.06;7360723;19;19950;-74
2022/11/17 13:14:56;;;;;;;;;;;;;;;14.94;59.07;96380.34;7360930;19;20618;-75
2022/11/17 13:17:41;;;;;;;;;;;;;;;14.90;60.46;96377.34;7371822;19;19940;-75
2022/11/17 13:20:11;;;;;;;;;;;;;;;14.79;60.46;96380.78;7389510;19;19931;-75
2022/11/17 13:22:37;;;;;;;;;;;;;;;14.64;60.62;96367.97;7392237;19;19922;-77
2022/11/17 13:25:25;;;;;;;;;;;;;;;14.77;60.83;96364.25;7390818;19;19915;-75
2022/11/17 13:27:52;;;;;;;;;;;;;;;14.68;61.40;96362.97;7387822;19;19914;-75
2022/11/17 13:30:27;;;;;;;;;;;;;;;14.45;60.05;96372.50;7397653;19;20356;-75
2022/11/17 13:33:22;;;;;;;;;;;;;;;14.49;59.61;96371.03;7392463;19;19918;-75
2022/11/17 13:36:20;;;;;;;;;;;;;;;14.44;58.99;96378.06;7398381;19;19918;-77